Terminal Aerodrome Forecast
Issued by NWS

Home | Current Version | Previous Version | Text Only | Print | Product List | Glossary On
Versions: 1 2 3 4 5 6 7 8 9 10 11 12 13 14 15 16 17 18 19 20 21 22
760
FTUS43 KGRR 221740
TAFLAN
TAF
KLAN 221740Z 2218/2318 22010G15KT P6SM OVC025
      TEMPO 2218/2221 BKN015
     FM222200 20010G16KT P6SM BKN025
     FM230300 23010KT 1SM BR BKN009
     FM231200 24008KT 3/4SM BR OVC007
     FM231500 34009KT P6SM BKN025=

USA.gov is the U.S. government's official web portal to all federal, state and local government web resources and services.